Time;durP1;ratioP1;P1;durP2;ratioP2;P2;SDS_P1;SDS_P2;PMS_P1;PMS_P2;Temp;Humidity;BMP_temperature;BMP_pressure;BME280_temperature;BME280_humidity;BME280_pressure;Samples;Min_cycle;Max_cycle;Signal;HPM_P1;HPM_P2
2023/06/13 00:01:49;;;;;;;12.55;7.63;;;8.80;99.90;;;;;;5136559;27;20023;-80
2023/06/13 00:04:23;;;;;;;12.70;7.28;;;8.70;99.90;;;;;;5136557;27;20114;-83
2023/06/13 00:06:55;;;;;;;8.00;5.30;;;8.80;99.90;;;;;;5136538;27;20016;-79
2023/06/13 00:09:22;;;;;;;8.60;5.95;;;8.70;99.90;;;;;;5137728;27;20020;-83
2023/06/13 00:11:51;;;;;;;10.38;5.47;;;8.70;99.90;;;;;;5137559;27;20046;-79
2023/06/13 00:14:20;;;;;;;7.78;4.88;;;8.60;99.90;;;;;;5137381;27;20084;-83
2023/06/13 00:16:47;;;;;;;7.55;5.13;;;8.60;99.90;;;;;;5136199;27;20455;-83
2023/06/13 00:19:17;;;;;;;10.30;5.40;;;8.60;99.90;;;;;;5053596;27;20061;-78
2023/06/13 00:21:45;;;;;;;5.93;4.63;;;8.50;99.90;;;;;;5013702;28;20030;-82
2023/06/13 00:24:11;;;;;;;6.95;4.90;;;8.50;99.90;;;;;;5012148;28;20026;-83
2023/06/13 00:26:36;;;;;;;6.35;5.13;;;8.50;99.90;;;;;;5011956;28;20567;-83
2023/06/13 00:29:02;;;;;;;8.23;5.22;;;8.50;99.90;;;;;;5011853;28;20026;-79
2023/06/13 00:31:28;;;;;;;7.43;5.40;;;8.40;99.90;;;;;;5011796;28;20033;-84
2023/06/13 00:33:55;;;;;;;8.30;4.82;;;8.40;99.90;;;;;;5011582;28;20030;-84
2023/06/13 00:36:22;;;;;;;6.28;4.30;;;8.30;99.90;;;;;;5012868;28;20410;-78
2023/06/13 00:38:49;;;;;;;5.32;4.35;;;8.40;99.90;;;;;;5015544;27;20127;-85
2023/06/13 00:41:15;;;;;;;6.25;4.47;;;8.40;99.90;;;;;;5136722;27;20050;-82
2023/06/13 00:43:40;;;;;;;5.80;4.38;;;8.40;99.90;;;;;;5137181;27;20023;-83
2023/06/13 00:46:06;;;;;;;5.90;4.57;;;8.50;99.90;;;;;;5135910;27;20100;-78
2023/06/13 00:48:33;;;;;;;5.80;4.68;;;8.40;99.90;;;;;;5135765;27;20506;-78
2023/06/13 00:51:01;;;;;;;5.30;4.80;;;8.40;99.90;;;;;;5137001;27;20496;-78
2023/06/13 00:53:29;;;;;;;4.55;3.63;;;8.40;99.90;;;;;;5135554;27;20053;-78
2023/06/13 00:55:56;;;;;;;4.78;3.65;;;8.40;99.90;;;;;;5135598;27;20019;-78
2023/06/13 00:58:22;;;;;;;4.70;4.30;;;8.30;99.90;;;;;;5096063;27;20033;-79
2023/06/13 01:00:49;;;;;;;5.88;3.60;;;8.20;99.90;;;;;;5011455;28;20026;-85
2023/06/13 01:03:15;;;;;;;6.07;3.70;;;8.20;99.90;;;;;;5011087;28;20026;-79
2023/06/13 01:05:43;;;;;;;5.47;3.72;;;8.20;99.90;;;;;;5011332;28;20021;-79
2023/06/13 01:08:18;;;;;;;4.75;3.88;;;8.20;99.90;;;;;;5011039;28;20052;-78
2023/06/13 01:10:52;;;;;;;5.50;3.60;;;8.20;99.90;;;;;;5012502;28;20026;-82
2023/06/13 01:13:27;;;;;;;4.88;3.13;;;8.20;99.90;;;;;;5011186;28;20046;-79
2023/06/13 01:16:22;;;;;;;3.15;2.60;;;8.10;99.90;;;;;;5012795;28;20097;-79
2023/06/13 01:18:51;;;;;;;5.93;3.75;;;8.10;99.90;;;;;;4997655;28;20032;-84
2023/06/13 01:21:18;;;;;;;4.32;3.70;;;8.10;99.90;;;;;;5011014;28;20071;-79
2023/06/13 01:24:05;;;;;;;5.07;3.80;;;8.10;99.90;;;;;;5012361;28;20493;-84
2023/06/13 01:26:54;;;;;;;7.35;3.53;;;8.10;99.90;;;;;;5011121;28;20079;-83
2023/06/13 01:29:21;;;;;;;4.20;3.45;;;8.20;99.90;;;;;;5010931;28;20120;-84
2023/06/13 01:31:50;;;;;;;5.63;4.00;;;8.20;99.90;;;;;;5011887;28;20033;-79
2023/06/13 01:34:17;;;;;;;4.38;3.75;;;8.20;99.90;;;;;;5028428;28;20444;-84
2023/06/13 01:36:43;;;;;;;4.45;4.05;;;8.20;99.90;;;;;;5114252;27;20026;-78
2023/06/13 01:39:09;;;;;;;6.57;3.92;;;8.10;99.90;;;;;;5134665;27;20023;-83
2023/06/13 01:41:35;;;;;;;3.45;3.13;;;8.00;99.90;;;;;;5134604;27;20023;-84
2023/06/13 01:44:03;;;;;;;5.45;4.15;;;7.90;99.90;;;;;;5134401;27;20350;-83
2023/06/13 01:46:33;;;;;;;6.70;4.85;;;7.70;99.90;;;;;;5134353;27;20031;-78
2023/06/13 01:49:06;;;;;;;7.72;4.85;;;7.60;99.90;;;;;;5134410;27;20022;-84
2023/06/13 01:51:56;;;;;;;5.90;4.40;;;7.50;99.90;;;;;;5134544;27;20425;-78
2023/06/13 01:54:24;;;;;;;5.28;4.07;;;7.50;99.90;;;;;;5135669;27;20365;-79
2023/06/13 01:56:55;;;;;;;7.35;4.43;;;7.40;99.90;;;;;;5134275;27;20106;-79
2023/06/13 01:59:28;;;;;;;8.77;5.47;;;7.30;99.90;;;;;;5121734;27;20019;-78
2023/06/13 02:01:56;;;;;;;6.25;3.85;;;7.30;99.90;;;;;;5135712;27;20026;-79
2023/06/13 02:04:21;;;;;;;5.50;4.28;;;7.10;99.90;;;;;;5066601;27;20033;-85
2023/06/13 02:06:47;;;;;;;7.63;4.38;;;7.00;99.90;;;;;;5030038;28;20063;-78
2023/06/13 02:09:13;;;;;;;4.25;3.83;;;7.00;99.90;;;;;;5031651;28;20032;-78
2023/06/13 02:11:39;;;;;;;6.88;4.85;;;7.00;99.90;;;;;;5029700;28;20483;-84
2023/06/13 02:14:06;;;;;;;9.68;5.38;;;7.00;99.90;;;;;;5031172;28;20088;-84
2023/06/13 02:16:32;;;;;;;6.55;4.88;;;6.90;99.90;;;;;;5029996;28;20022;-78
2023/06/13 02:18:59;;;;;;;8.50;5.75;;;6.90;99.90;;;;;;5029936;28;20063;-78
2023/06/13 02:21:27;;;;;;;11.77;6.70;;;6.90;99.90;;;;;;5031184;28;20017;-78
2023/06/13 02:23:52;;;;;;;8.77;6.05;;;7.00;99.90;;;;;;5031229;28;20018;-83
2023/06/13 02:26:19;;;;;;;11.02;6.43;;;6.90;99.90;;;;;;5029976;28;20054;-84
2023/06/13 02:28:45;;;;;;;10.73;6.50;;;6.90;99.90;;;;;;5031072;28;20386;-84
2023/06/13 02:31:11;;;;;;;12.48;7.72;;;6.90;99.90;;;;;;5029833;28;20022;-84
2023/06/13 02:33:38;;;;;;;10.30;5.47;;;6.90;99.90;;;;;;5029815;28;20029;-78
2023/06/13 02:36:05;;;;;;;9.60;5.95;;;6.90;99.90;;;;;;5031014;28;20033;-84
2023/06/13 02:38:30;;;;;;;8.52;5.93;;;6.90;99.90;;;;;;5030859;28;20022;-79
2023/06/13 02:40:56;;;;;;;8.57;5.80;;;6.90;99.90;;;;;;5030894;28;20416;-78
2023/06/13 02:43:22;;;;;;;5.80;4.68;;;6.90;99.90;;;;;;5030841;28;20032;-83
2023/06/13 02:45:47;;;;;;;6.40;4.85;;;6.90;99.90;;;;;;5031270;28;20409;-78
2023/06/13 02:48:13;;;;;;;8.20;4.80;;;6.90;99.90;;;;;;5030708;28;20086;-83
2023/06/13 02:50:38;;;;;;;8.10;4.90;;;6.90;99.90;;;;;;5029673;28;20053;-78
2023/06/13 02:53:04;;;;;;;5.30;4.07;;;6.90;99.90;;;;;;5029357;28;20564;-78
2023/06/13 02:55:30;;;;;;;4.97;4.10;;;6.90;99.90;;;;;;5029681;28;20116;-82
2023/06/13 02:57:56;;;;;;;5.72;4.22;;;7.00;99.90;;;;;;5029357;28;20489;-78
2023/06/13 03:00:22;;;;;;;5.82;4.35;;;7.00;99.90;;;;;;5029306;28;20028;-78
2023/06/13 03:02:48;;;;;;;7.60;4.32;;;7.00;99.90;;;;;;5029176;28;20116;-82
2023/06/13 03:05:17;;;;;;;7.05;4.95;;;7.00;99.90;;;;;;5031006;28;20028;-82
2023/06/13 03:07:46;;;;;;;6.40;4.60;;;7.10;99.90;;;;;;5030283;28;20502;-82
2023/06/13 03:10:13;;;;;;;6.35;4.22;;;7.00;99.90;;;;;;5030688;28;20065;-78
2023/06/13 03:12:41;;;;;;;4.15;3.75;;;7.00;99.90;;;;;;5028898;28;20467;-82
2023/06/13 03:15:08;;;;;;;5.68;3.20;;;7.00;99.90;;;;;;5030458;28;20033;-82
2023/06/13 03:17:34;;;;;;;5.75;3.95;;;7.00;99.90;;;;;;5029125;28;20463;-82
2023/06/13 03:20:00;;;;;;;6.05;3.47;;;7.00;99.90;;;;;;5030380;28;20029;-78
2023/06/13 03:22:25;;;;;;;4.68;3.13;;;7.10;99.90;;;;;;5029339;28;20375;-81
2023/06/13 03:24:52;;;;;;;3.10;2.80;;;7.10;99.90;;;;;;5033866;28;20053;-78
2023/06/13 03:27:18;;;;;;;3.90;3.10;;;7.20;99.90;;;;;;5032586;28;20026;-78
2023/06/13 03:29:44;;;;;;;3.22;2.92;;;7.40;99.90;;;;;;5032581;28;20017;-81
2023/06/13 03:32:11;;;;;;;5.60;4.32;;;7.80;99.90;;;;;;5033790;28;20101;-82
2023/06/13 03:34:38;;;;;;;5.07;4.22;;;8.20;99.90;;;;;;5032380;28;20033;-83
2023/06/13 03:37:05;;;;;;;4.28;3.28;;;8.50;99.90;;;;;;5032412;28;20055;-83
2023/06/13 03:39:31;;;;;;;5.05;3.47;;;8.80;99.90;;;;;;5032405;28;20435;-84
2023/06/13 03:41:57;;;;;;;3.45;3.13;;;9.00;99.90;;;;;;5032662;28;20061;-84
2023/06/13 03:44:23;;;;;;;4.75;2.90;;;9.20;99.90;;;;;;5032132;28;20116;-78
2023/06/13 03:46:48;;;;;;;5.07;3.10;;;9.40;99.90;;;;;;5032223;28;20022;-79
2023/06/13 03:49:14;;;;;;;3.92;3.17;;;9.60;99.90;;;;;;5032489;28;20021;-79
2023/06/13 03:51:39;;;;;;;3.65;3.13;;;9.70;99.90;;;;;;5033107;28;20053;-79
2023/06/13 03:54:05;;;;;;;3.45;3.15;;;9.90;99.90;;;;;;5032096;28;20037;-84
2023/06/13 03:56:31;;;;;;;5.05;3.42;;;10.10;99.90;;;;;;5033404;28;20052;-83
2023/06/13 03:58:56;;;;;;;5.05;3.15;;;10.20;99.90;;;;;;5031700;28;20033;-79
2023/06/13 04:01:22;;;;;;;4.10;3.20;;;10.30;99.90;;;;;;5032100;28;20032;-79
2023/06/13 04:03:48;;;;;;;5.30;3.83;;;10.30;99.90;;;;;;5032020;28;20025;-83
2023/06/13 04:06:13;;;;;;;3.42;2.95;;;10.40;99.90;;;;;;5032065;28;20082;-84
2023/06/13 04:08:40;;;;;;;3.33;3.03;;;10.60;99.90;;;;;;5031919;28;20089;-84
2023/06/13 04:11:06;;;;;;;5.00;3.42;;;10.70;99.90;;;;;;5031870;28;20070;-79
2023/06/13 04:13:31;;;;;;;4.40;3.40;;;10.90;99.90;;;;;;5032994;28;20416;-79
2023/06/13 04:15:57;;;;;;;3.33;3.03;;;11.00;99.90;;;;;;5032430;28;20084;-84
2023/06/13 04:18:23;;;;;;;4.60;3.63;;;11.10;99.90;;;;;;5031767;28;20561;-82
2023/06/13 04:20:52;;;;;;;5.90;3.30;;;11.20;99.90;;;;;;5031856;28;20026;-83
2023/06/13 04:23:19;;;;;;;5.10;3.20;;;11.10;99.90;;;;;;5031716;28;20047;-79
2023/06/13 04:25:44;;;;;;;5.03;3.80;;;11.30;99.90;;;;;;5033011;28;20022;-84
2023/06/13 04:28:13;;;;;;;5.50;3.65;;;11.40;99.90;;;;;;5031574;28;20028;-80
2023/06/13 04:30:40;;;;;;;5.32;3.78;;;11.40;99.90;;;;;;5032851;28;20025;-79
2023/06/13 04:33:14;;;;;;;4.45;3.40;;;11.40;99.90;;;;;;5031343;28;20032;-83
2023/06/13 04:35:44;;;;;;;4.47;3.63;;;11.40;99.90;;;;;;5032848;28;20054;-82
2023/06/13 04:38:11;;;;;;;5.05;3.88;;;11.40;99.90;;;;;;5032824;28;20109;-79
2023/06/13 04:40:37;;;;;;;7.57;3.92;;;11.40;99.90;;;;;;5032749;28;20022;-79
2023/06/13 04:43:05;;;;;;;5.25;3.85;;;11.40;99.90;;;;;;5031328;28;20067;-78
2023/06/13 04:45:32;;;;;;;4.40;3.35;;;11.40;99.90;;;;;;5031470;28;20056;-79
2023/06/13 04:48:01;;;;;;;5.13;3.45;;;11.50;99.90;;;;;;5031273;28;20018;-79
2023/06/13 04:50:28;;;;;;;7.95;4.32;;;11.60;99.90;;;;;;5032347;28;20482;-82
2023/06/13 04:52:57;;;;;;;3.42;3.13;;;11.70;99.90;;;;;;5031021;28;20411;-79
2023/06/13 04:55:25;;;;;;;3.60;3.20;;;11.80;99.90;;;;;;5031318;28;20026;-82
2023/06/13 04:57:51;;;;;;;5.85;3.42;;;11.80;99.90;;;;;;5031007;28;20472;-82
2023/06/13 05:00:18;;;;;;;4.32;3.15;;;11.90;99.90;;;;;;5031671;28;20025;-79
2023/06/13 05:02:45;;;;;;;3.97;3.58;;;11.80;99.90;;;;;;5031035;28;20030;-79
2023/06/13 05:05:11;;;;;;;4.35;3.25;;;11.70;99.90;;;;;;5031128;28;20431;-83
2023/06/13 05:07:39;;;;;;;3.92;3.33;;;11.70;99.90;;;;;;5032258;28;20030;-79
2023/06/13 05:10:05;;;;;;;3.55;3.05;;;11.60;99.90;;;;;;5032150;28;20025;-77
2023/06/13 05:12:30;;;;;;;5.05;3.50;;;11.80;99.90;;;;;;5030667;28;20034;-80
2023/06/13 05:14:57;;;;;;;5.85;3.17;;;11.70;99.90;;;;;;5030456;28;20037;-76
2023/06/13 05:17:22;;;;;;;3.25;2.95;;;11.80;99.90;;;;;;5011967;28;20030;-81
2023/06/13 05:19:48;;;;;;;4.57;3.13;;;11.80;99.90;;;;;;5022759;28;20040;-78
2023/06/13 05:22:15;;;;;;;4.35;3.35;;;11.80;99.90;;;;;;5031614;28;20036;-81
2023/06/13 05:24:41;;;;;;;4.20;3.28;;;11.70;99.90;;;;;;5030574;28;20022;-78
2023/06/13 05:27:07;;;;;;;3.45;3.15;;;11.80;99.90;;;;;;5028825;28;20041;-77
2023/06/13 05:29:32;;;;;;;4.47;3.33;;;11.90;99.90;;;;;;5023391;28;20061;-82
2023/06/13 05:31:58;;;;;;;4.80;3.55;;;12.00;99.90;;;;;;5027107;28;20045;-82
2023/06/13 05:34:24;;;;;;;6.22;3.65;;;12.10;99.90;;;;;;5029041;28;20048;-79
2023/06/13 05:36:50;;;;;;;3.67;3.38;;;12.10;99.90;;;;;;5022247;28;20044;-82
2023/06/13 05:39:15;;;;;;;5.85;3.70;;;12.20;99.90;;;;;;5012033;28;20025;-81
2023/06/13 05:41:41;;;;;;;4.10;3.33;;;12.20;99.90;;;;;;5010387;28;20023;-81
2023/06/13 05:44:08;;;;;;;5.18;3.63;;;12.20;99.90;;;;;;5011679;28;20037;-82
2023/06/13 05:46:33;;;;;;;13.63;5.78;;;12.20;99.90;;;;;;5009868;28;20030;-81
2023/06/13 05:48:59;;;;;;;7.25;4.63;;;12.10;99.90;;;;;;5009757;28;20030;-80
2023/06/13 05:51:25;;;;;;;11.95;4.70;;;12.10;99.90;;;;;;5009687;28;20487;-79
2023/06/13 05:53:51;;;;;;;11.18;4.72;;;12.10;99.90;;;;;;5010159;28;20056;-79
2023/06/13 05:56:17;;;;;;;14.27;4.38;;;12.20;99.90;;;;;;5010272;28;20022;-79
2023/06/13 05:58:44;;;;;;;6.60;4.10;;;12.30;99.90;;;;;;5010243;28;20383;-81
2023/06/13 06:01:12;;;;;;;4.25;3.88;;;12.30;99.90;;;;;;5010201;28;20025;-81
2023/06/13 06:03:38;;;;;;;10.73;4.32;;;12.40;99.80;;;;;;5015634;28;20105;-81
2023/06/13 06:06:04;;;;;;;8.70;3.40;;;12.40;99.90;;;;;;5009601;28;20491;-78
2023/06/13 06:08:30;;;;;;;4.32;3.72;;;12.30;99.90;;;;;;5011307;28;20029;-80
2023/06/13 06:10:56;;;;;;;5.30;2.97;;;12.50;99.90;;;;;;5011308;28;20033;-80
2023/06/13 06:13:21;;;;;;;3.65;2.97;;;12.80;98.80;;;;;;5009955;28;20030;-83
2023/06/13 06:15:47;;;;;;;11.20;3.75;;;12.80;95.40;;;;;;5009982;28;20577;-79
2023/06/13 06:18:13;;;;;;;17.88;5.78;;;12.90;95.70;;;;;;5009710;28;20050;-82
2023/06/13 06:20:38;;;;;;;4.68;3.17;;;12.90;93.70;;;;;;5008250;28;20026;-83
2023/06/13 06:23:04;;;;;;;4.60;2.67;;;12.90;91.50;;;;;;5007742;28;20114;-82
2023/06/13 06:25:30;;;;;;;4.78;2.58;;;12.80;89.10;;;;;;5009932;28;20067;-82
2023/06/13 06:27:56;;;;;;;3.50;3.10;;;12.70;86.60;;;;;;5014218;28;20075;-82
2023/06/13 06:30:21;;;;;;;4.55;2.95;;;12.70;88.20;;;;;;5027631;28;20462;-83
2023/06/13 06:32:48;;;;;;;5.47;2.70;;;12.90;89.70;;;;;;5029475;28;20037;-83
2023/06/13 06:35:16;;;;;;;4.85;2.92;;;13.10;90.10;;;;;;5029329;28;20525;-82
2023/06/13 06:37:43;;;;;;;5.22;3.38;;;13.10;87.20;;;;;;5028722;28;20033;-82
2023/06/13 06:40:10;;;;;;;3.75;2.47;;;13.10;88.40;;;;;;5030859;28;20394;-82
2023/06/13 06:42:36;;;;;;;2.83;2.55;;;13.40;87.90;;;;;;5027408;28;20022;-82
2023/06/13 06:45:02;;;;;;;4.57;2.83;;;13.40;86.80;;;;;;5028501;28;20083;-82
2023/06/13 06:47:27;;;;;;;2.63;2.40;;;13.20;85.50;;;;;;5028922;28;20033;-80
2023/06/13 06:49:53;;;;;;;4.43;3.10;;;13.10;87.30;;;;;;5028548;28;20029;-82
2023/06/13 06:52:19;;;;;;;2.53;2.33;;;13.10;90.00;;;;;;5027735;28;20018;-80
2023/06/13 06:54:44;;;;;;;2.63;2.40;;;13.20;87.10;;;;;;5029510;28;20496;-79
2023/06/13 06:57:10;;;;;;;2.67;2.47;;;13.20;85.30;;;;;;5029964;28;20022;-80
2023/06/13 06:59:36;;;;;;;2.25;2.13;;;13.10;85.80;;;;;;5029915;28;20030;-80
2023/06/13 07:02:01;;;;;;;3.65;2.70;;;13.40;86.40;;;;;;5029029;28;20026;-81
2023/06/13 07:04:27;;;;;;;3.33;2.90;;;13.70;86.40;;;;;;5029316;28;20117;-80
2023/06/13 07:06:52;;;;;;;3.22;2.53;;;13.90;83.20;;;;;;5029412;28;20112;-80
2023/06/13 07:09:18;;;;;;;4.70;2.38;;;13.90;82.50;;;;;;5030542;28;20026;-80
2023/06/13 07:11:44;;;;;;;1.52;1.42;;;13.90;80.60;;;;;;5030206;28;20054;-82
2023/06/13 07:14:10;;;;;;;4.50;2.25;;;13.70;74.20;;;;;;5029327;28;20037;-82
2023/06/13 07:16:35;;;;;;;2.45;1.85;;;13.80;75.40;;;;;;5029365;28;20029;-83
2023/06/13 07:19:01;;;;;;;3.20;2.10;;;14.00;74.00;;;;;;5029500;28;20032;-81
2023/06/13 07:21:27;;;;;;;2.72;1.95;;;14.10;73.90;;;;;;5030458;28;20463;-83
2023/06/13 07:23:52;;;;;;;2.10;1.58;;;14.30;73.90;;;;;;5030408;28;20029;-83
2023/06/13 07:26:18;;;;;;;2.33;2.13;;;14.40;72.80;;;;;;5029076;28;20055;-83
2023/06/13 07:28:43;;;;;;;7.22;3.13;;;14.30;71.80;;;;;;5031451;28;20020;-81
2023/06/13 07:31:09;;;;;;;2.80;1.88;;;14.20;70.70;;;;;;5029225;28;20075;-83
2023/06/13 07:33:35;;;;;;;4.40;2.42;;;14.20;71.60;;;;;;5029042;28;20022;-81
2023/06/13 07:36:00;;;;;;;2.28;2.08;;;14.50;71.20;;;;;;5030319;28;20021;-83
2023/06/13 07:38:26;;;;;;;2.17;2.00;;;14.80;69.70;;;;;;5028832;28;20066;-82
2023/06/13 07:40:52;;;;;;;2.38;2.17;;;15.00;68.70;;;;;;5028956;28;20047;-81
2023/06/13 07:43:18;;;;;;;3.47;1.85;;;15.20;68.60;;;;;;5029800;28;20025;-82
2023/06/13 07:45:45;;;;;;;4.90;1.50;;;15.30;66.80;;;;;;5028994;28;20108;-82
2023/06/13 07:48:10;;;;;;;3.35;2.15;;;15.40;65.10;;;;;;5030232;28;20028;-82
2023/06/13 07:50:36;;;;;;;2.97;2.08;;;15.50;65.60;;;;;;5028664;28;20057;-82
2023/06/13 07:53:02;;;;;;;2.40;1.88;;;15.50;66.00;;;;;;5028715;28;20026;-82
2023/06/13 07:55:28;;;;;;;2.85;1.90;;;15.80;65.50;;;;;;5030068;28;20030;-81
2023/06/13 07:57:54;;;;;;;3.47;2.15;;;16.00;65.50;;;;;;5029963;28;20029;-82
2023/06/13 08:00:20;;;;;;;2.35;2.13;;;15.80;64.20;;;;;;5030962;28;20395;-81
2023/06/13 08:02:46;;;;;;;8.70;2.55;;;16.10;66.10;;;;;;5029926;28;20062;-82
2023/06/13 08:05:13;;;;;;;4.88;2.10;;;16.00;64.20;;;;;;5029873;28;20097;-82
2023/06/13 08:07:39;;;;;;;1.90;1.73;;;16.10;64.40;;;;;;5028533;28;20025;-83
2023/06/13 08:10:05;;;;;;;3.15;2.00;;;16.00;64.70;;;;;;5031299;28;20582;-82
2023/06/13 08:12:31;;;;;;;3.92;2.20;;;15.90;66.80;;;;;;5033214;28;20105;-81
2023/06/13 08:14:57;;;;;;;3.53;1.90;;;15.80;65.00;;;;;;5033391;28;20102;-81
2023/06/13 08:17:24;;;;;;;1.95;1.63;;;15.80;66.20;;;;;;5033178;28;20026;-81
2023/06/13 08:19:50;;;;;;;3.20;2.10;;;15.70;64.40;;;;;;5033210;28;20013;-82
2023/06/13 08:22:17;;;;;;;3.60;2.15;;;15.60;67.00;;;;;;5033258;28;20472;-83
2023/06/13 08:24:42;;;;;;;2.47;2.03;;;15.40;66.50;;;;;;5033285;28;20047;-81
2023/06/13 08:27:10;;;;;;;5.70;2.00;;;15.60;66.70;;;;;;5033104;28;20109;-81
2023/06/13 08:29:36;;;;;;;2.10;1.85;;;15.90;65.70;;;;;;5032457;28;20033;-81
2023/06/13 08:32:02;;;;;;;6.80;2.05;;;15.90;64.40;;;;;;5034813;28;20033;-81
2023/06/13 08:34:28;;;;;;;1.95;1.75;;;15.90;63.40;;;;;;5031905;28;20120;-82
2023/06/13 08:36:53;;;;;;;3.13;1.85;;;16.00;64.20;;;;;;5032913;28;20053;-82
2023/06/13 08:39:20;;;;;;;4.85;2.03;;;15.80;64.70;;;;;;5031624;28;20052;-82
2023/06/13 08:41:46;;;;;;;2.50;2.13;;;16.20;63.90;;;;;;5032861;28;20018;-82
2023/06/13 08:44:12;;;;;;;2.83;1.60;;;16.40;63.50;;;;;;5032320;28;20497;-80
2023/06/13 08:46:38;;;;;;;3.70;1.70;;;16.30;62.20;;;;;;5033250;28;20033;-82
2023/06/13 08:49:04;;;;;;;5.72;2.50;;;16.00;61.40;;;;;;5031436;28;20025;-83
2023/06/13 08:51:31;;;;;;;9.82;1.90;;;15.90;62.60;;;;;;5031369;28;20403;-82
2023/06/13 08:54:00;;;;;;;1.80;1.70;;;15.90;62.70;;;;;;5031407;28;20045;-82
2023/06/13 08:56:28;;;;;;;1.70;1.60;;;15.90;61.60;;;;;;5032745;28;20036;-82
2023/06/13 08:59:11;;;;;;;1.60;1.50;;;16.00;61.80;;;;;;5034230;28;20101;-82
2023/06/13 09:01:38;;;;;;;2.25;1.67;;;16.00;62.10;;;;;;5031379;28;20070;-82
2023/06/13 09:04:09;;;;;;;2.25;1.38;;;15.80;62.20;;;;;;5031147;28;20070;-82
2023/06/13 09:06:37;;;;;;;3.08;2.05;;;15.60;63.10;;;;;;5031158;28;20013;-81
2023/06/13 09:09:03;;;;;;;4.38;2.28;;;15.70;62.60;;;;;;5031195;28;20079;-82
2023/06/13 09:11:29;;;;;;;2.40;2.20;;;15.90;62.20;;;;;;5031158;28;20477;-82
2023/06/13 09:13:58;;;;;;;6.47;2.30;;;16.00;61.80;;;;;;5033066;28;20068;-83
2023/06/13 09:16:24;;;;;;;1.55;1.45;;;16.10;61.90;;;;;;5032355;28;20018;-83
2023/06/13 09:18:50;;;;;;;4.65;1.75;;;16.00;62.20;;;;;;5031158;28;20034;-82
2023/06/13 09:21:17;;;;;;;2.22;2.00;;;16.20;63.00;;;;;;5030053;28;20455;-82
2023/06/13 09:23:43;;;;;;;2.40;1.63;;;16.40;62.80;;;;;;5030982;28;20031;-82
2023/06/13 09:26:09;;;;;;;2.85;1.83;;;16.40;61.90;;;;;;5032148;28;20450;-82
2023/06/13 09:28:43;;;;;;;3.08;2.28;;;16.30;60.00;;;;;;5031904;28;20017;-83
2023/06/13 09:31:10;;;;;;;3.75;2.05;;;16.10;60.00;;;;;;5030935;28;20029;-82
2023/06/13 09:33:36;;;;;;;2.70;1.90;;;16.20;59.80;;;;;;5030698;28;20060;-83
2023/06/13 09:36:06;;;;;;;2.00;1.77;;;16.70;61.50;;;;;;5014255;28;20040;-82
2023/06/13 09:38:35;;;;;;;3.72;1.80;;;16.50;59.20;;;;;;5031993;28;20021;-83
2023/06/13 09:41:03;;;;;;;1.77;1.67;;;16.40;59.20;;;;;;5030659;28;20116;-82
2023/06/13 09:43:29;;;;;;;2.83;1.58;;;16.60;58.70;;;;;;5031451;28;20471;-82
2023/06/13 09:45:55;;;;;;;2.60;1.63;;;16.80;59.00;;;;;;5032620;28;20466;-82
2023/06/13 09:48:22;;;;;;;2.20;1.70;;;16.90;59.40;;;;;;5030519;28;20029;-82
2023/06/13 09:50:49;;;;;;;2.17;1.60;;;16.50;60.00;;;;;;5031474;28;20098;-82
2023/06/13 09:53:15;;;;;;;3.88;1.75;;;16.60;59.30;;;;;;5030389;28;20483;-82
2023/06/13 09:55:41;;;;;;;1.58;1.50;;;16.70;58.90;;;;;;5030626;28;20025;-83
2023/06/13 09:58:07;;;;;;;3.40;1.67;;;16.40;58.70;;;;;;5031577;28;20467;-82
2023/06/13 10:00:33;;;;;;;4.57;1.88;;;16.90;60.30;;;;;;5032226;28;20102;-83
2023/06/13 10:02:59;;;;;;;5.45;1.80;;;16.80;59.30;;;;;;5030126;28;20025;-82
2023/06/13 10:05:25;;;;;;;3.17;1.55;;;16.50;59.40;;;;;;5031518;28;20037;-82
2023/06/13 10:07:55;;;;;;;1.48;1.30;;;16.40;60.80;;;;;;5031644;28;20022;-82
2023/06/13 10:10:21;;;;;;;2.63;1.98;;;16.30;61.20;;;;;;5030303;28;20049;-81
2023/06/13 10:12:55;;;;;;;1.63;1.52;;;16.50;61.40;;;;;;5031425;28;20531;-82
2023/06/13 10:15:44;;;;;;;1.98;1.65;;;17.00;60.20;;;;;;5030126;28;20029;-82
2023/06/13 10:18:13;;;;;;;2.78;1.30;;;16.70;59.00;;;;;;5030718;28;20018;-82
2023/06/13 10:20:40;;;;;;;1.67;1.42;;;16.80;58.80;;;;;;5020367;28;20490;-83
2023/06/13 10:23:13;;;;;;;1.73;1.60;;;16.70;59.50;;;;;;5026186;28;20109;-81
2023/06/13 10:25:40;;;;;;;1.63;1.52;;;16.60;60.10;;;;;;5029289;28;20541;-81
2023/06/13 10:28:26;;;;;;;1.70;1.50;;;16.50;59.50;;;;;;5028724;28;20428;-82
2023/06/13 10:31:07;;;;;;;3.88;2.08;;;16.50;58.60;;;;;;5011380;28;20037;-82
2023/06/13 10:34:07;;;;;;;3.97;1.73;;;16.80;57.70;;;;;;5027365;27;20081;-83
2023/06/13 10:37:00;;;;;;;1.48;1.25;;;16.80;58.40;;;;;;5028120;28;20044;-82
2023/06/13 10:39:41;;;;;;;4.07;1.85;;;16.80;59.40;;;;;;5028367;27;20142;-82
2023/06/13 10:42:22;;;;;;;2.22;1.52;;;16.80;60.50;;;;;;5027855;28;20029;-81
2023/06/13 10:45:04;;;;;;;2.78;1.63;;;17.00;59.90;;;;;;5028213;28;20032;-82
2023/06/13 10:47:30;;;;;;;1.30;1.20;;;17.20;58.40;;;;;;5027795;28;20102;-80
2023/06/13 10:49:58;;;;;;;2.55;1.65;;;17.40;58.10;;;;;;5130591;27;20081;-80
2023/06/13 10:52:24;;;;;;;1.23;1.13;;;17.40;58.50;;;;;;5131313;27;20030;-80
2023/06/13 10:54:55;;;;;;;1.40;1.30;;;17.30;58.70;;;;;;5131648;27;20400;-81
2023/06/13 10:57:21;;;;;;;1.80;1.52;;;17.10;57.70;;;;;;5130512;27;20019;-81
2023/06/13 10:59:49;;;;;;;1.40;1.30;;;17.10;56.60;;;;;;5132860;27;20374;-81
2023/06/13 11:02:17;;;;;;;2.78;1.35;;;17.00;58.30;;;;;;5130481;27;20022;-81
2023/06/13 11:04:50;;;;;;;2.30;1.40;;;17.10;57.20;;;;;;5125857;27;20567;-81
2023/06/13 11:07:25;;;;;;;1.77;1.67;;;16.90;58.00;;;;;;5028643;28;20024;-81
2023/06/13 11:10:12;;;;;;;1.92;1.40;;;17.20;58.80;;;;;;5029723;28;20038;-81
2023/06/13 11:12:40;;;;;;;1.25;1.23;;;17.40;58.90;;;;;;5028370;28;20025;-81
2023/06/13 11:15:25;;;;;;;2.17;1.38;;;17.60;57.90;;;;;;5027791;28;20133;-79
2023/06/13 11:18:09;;;;;;;1.58;1.40;;;17.70;59.40;;;;;;5027965;28;20482;-81
2023/06/13 11:20:54;;;;;;;3.58;1.92;;;17.40;59.30;;;;;;5021273;28;20404;-81
2023/06/13 11:23:44;;;;;;;1.83;1.70;;;17.10;58.80;;;;;;5013547;28;20029;-81
2023/06/13 11:26:11;;;;;;;3.03;1.60;;;16.80;59.80;;;;;;5007943;28;20607;-81
2023/06/13 11:28:37;;;;;;;8.57;2.38;;;16.70;61.50;;;;;;5027599;28;20112;-81
2023/06/13 11:31:04;;;;;;;3.17;2.05;;;16.50;60.90;;;;;;5023993;27;20114;-81
2023/06/13 11:33:36;;;;;;;2.13;1.63;;;16.40;60.50;;;;;;5008998;28;20087;-81
2023/06/13 11:36:03;;;;;;;2.17;1.30;;;16.50;61.60;;;;;;5019732;28;20479;-81
2023/06/13 11:38:37;;;;;;;1.90;1.80;;;16.60;61.30;;;;;;5019954;28;20074;-81
2023/06/13 11:41:03;;;;;;;3.53;1.65;;;16.80;60.30;;;;;;5017399;28;20114;-81
2023/06/13 11:43:28;;;;;;;1.85;1.35;;;16.70;60.70;;;;;;5032071;27;20068;-81
2023/06/13 11:45:59;;;;;;;1.25;1.15;;;16.40;61.60;;;;;;5035169;27;20117;-80
2023/06/13 11:48:25;;;;;;;1.52;1.30;;;16.40;61.30;;;;;;5026923;27;20467;-80
2023/06/13 11:50:51;;;;;;;6.80;1.90;;;16.30;61.40;;;;;;5021608;28;20403;-80
2023/06/13 11:53:18;;;;;;;1.55;1.17;;;16.60;60.60;;;;;;5019499;28;20048;-81
2023/06/13 11:55:44;;;;;;;1.65;1.55;;;17.00;60.50;;;;;;5019832;28;20030;-81
2023/06/13 11:58:10;;;;;;;2.00;1.10;;;17.10;60.00;;;;;;5020026;28;20021;-81
2023/06/13 12:00:57;;;;;;;5.07;1.30;;;17.20;59.90;;;;;;5019864;28;20114;-81
2023/06/13 12:03:23;;;;;;;5.28;1.58;;;17.10;60.60;;;;;;5017936;28;20026;-81
2023/06/13 12:05:51;;;;;;;2.25;1.40;;;17.10;60.30;;;;;;5017460;28;20045;-81
2023/06/13 12:08:16;;;;;;;2.60;1.70;;;16.80;60.00;;;;;;5017840;28;20036;-81
2023/06/13 12:10:46;;;;;;;2.17;1.35;;;16.70;59.70;;;;;;5019579;27;20082;-81
2023/06/13 12:13:16;;;;;;;4.22;1.65;;;16.90;58.90;;;;;;5023201;28;20025;-80
2023/06/13 12:15:42;;;;;;;3.80;1.40;;;17.10;59.50;;;;;;5029556;28;20029;-81
2023/06/13 12:18:08;;;;;;;2.95;1.27;;;17.10;58.40;;;;;;5031162;28;20022;-81
2023/06/13 12:20:46;;;;;;;3.88;1.52;;;17.20;58.00;;;;;;5036655;28;20087;-80
2023/06/13 12:23:12;;;;;;;1.52;1.20;;;17.20;58.50;;;;;;5027512;28;20014;-81
2023/06/13 12:25:40;;;;;;;1.35;1.08;;;17.70;57.90;;;;;;5014201;28;20052;-81
2023/06/13 12:28:06;;;;;;;2.22;1.38;;;17.90;56.30;;;;;;5018834;28;20387;-81
2023/06/13 12:30:41;;;;;;;6.63;2.03;;;17.90;55.60;;;;;;5015661;28;20094;-80
2023/06/13 12:33:14;;;;;;;1.85;1.45;;;17.90;55.90;;;;;;5021776;28;20767;-81
2023/06/13 12:35:49;;;;;;;;;;;17.50;57.90;;;;;;5019020;28;20103;-81
2023/06/13 12:38:16;;;;;;;3.42;1.10;;;17.30;59.30;;;;;;5030419;28;19912;-81
2023/06/13 12:40:41;;;;;;;1.35;1.25;;;17.30;58.40;;;;;;5030402;28;20125;-80
2023/06/13 12:43:07;;;;;;;1.90;1.40;;;17.20;58.80;;;;;;5030888;28;20453;-81
2023/06/13 12:45:33;;;;;;;1.48;1.17;;;17.30;58.40;;;;;;5029886;27;20048;-81
2023/06/13 12:47:58;;;;;;;3.70;1.77;;;17.60;58.50;;;;;;5031943;28;20022;-81
2023/06/13 12:50:25;;;;;;;2.72;1.20;;;18.00;57.20;;;;;;5030277;27;20045;-81
2023/06/13 12:53:07;;;;;;;1.02;1.02;;;17.90;56.00;;;;;;5030618;28;20022;-81
2023/06/13 12:55:35;;;;;;;9.82;1.70;;;17.90;55.90;;;;;;5028788;27;20402;-82